sensor_id;sensor_type;location;lat;lon;timestamp;P1;durP1;ratioP1;P2;durP2;ratioP2
51465;SDS011;37542;50.164;9.086;2022-09-09T00:03:12;1.58;;;1.15;;
51465;SDS011;37542;50.164;9.086;2022-09-09T00:11:03;1.73;;;1.13;;
51465;SDS011;37542;50.164;9.086;2022-09-09T00:14:47;1.52;;;1.02;;
51465;SDS011;37542;50.164;9.086;2022-09-09T00:22:57;4.05;;;1.40;;
51465;SDS011;37542;50.164;9.086;2022-09-09T00:27:06;2.10;;;1.20;;
51465;SDS011;37542;50.164;9.086;2022-09-09T00:30:54;1.20;;;0.90;;
51465;SDS011;37542;50.164;9.086;2022-09-09T00:34:47;2.03;;;1.33;;
51465;SDS011;37542;50.164;9.086;2022-09-09T00:38:38;1.83;;;1.02;;
51465;SDS011;37542;50.164;9.086;2022-09-09T00:58:43;2.00;;;1.13;;
51465;SDS011;37542;50.164;9.086;2022-09-09T01:07:12;2.42;;;1.00;;
51465;SDS011;37542;50.164;9.086;2022-09-09T01:10:58;1.20;;;0.80;;
51465;SDS011;37542;50.164;9.086;2022-09-09T01:14:43;1.58;;;0.80;;
51465;SDS011;37542;50.164;9.086;2022-09-09T01:18:34;0.98;;;0.85;;
51465;SDS011;37542;50.164;9.086;2022-09-09T01:22:40;1.08;;;0.90;;
51465;SDS011;37542;50.164;9.086;2022-09-09T01:26:37;1.05;;;0.75;;
51465;SDS011;37542;50.164;9.086;2022-09-09T01:30:26;2.83;;;1.23;;
51465;SDS011;37542;50.164;9.086;2022-09-09T01:34:12;1.40;;;0.90;;
51465;SDS011;37542;50.164;9.086;2022-09-09T01:37:55;1.63;;;1.10;;
51465;SDS011;37542;50.164;9.086;2022-09-09T01:41:36;5.40;;;1.33;;
51465;SDS011;37542;50.164;9.086;2022-09-09T01:45:17;1.65;;;1.20;;
51465;SDS011;37542;50.164;9.086;2022-09-09T01:48:58;1.02;;;0.93;;
51465;SDS011;37542;50.164;9.086;2022-09-09T01:52:42;2.00;;;0.90;;
51465;SDS011;37542;50.164;9.086;2022-09-09T01:56:32;4.13;;;1.20;;
51465;SDS011;37542;50.164;9.086;2022-09-09T02:00:26;1.10;;;1.00;;
51465;SDS011;37542;50.164;9.086;2022-09-09T02:04:12;1.98;;;1.20;;
51465;SDS011;37542;50.164;9.086;2022-09-09T02:08:26;2.50;;;0.80;;
51465;SDS011;37542;50.164;9.086;2022-09-09T02:12:18;1.50;;;1.10;;
51465;SDS011;37542;50.164;9.086;2022-09-09T02:19:46;3.50;;;1.00;;
51465;SDS011;37542;50.164;9.086;2022-09-09T02:23:35;2.03;;;1.00;;
51465;SDS011;37542;50.164;9.086;2022-09-09T02:27:19;3.08;;;1.23;;
51465;SDS011;37542;50.164;9.086;2022-09-09T02:31:02;1.30;;;1.00;;
51465;SDS011;37542;50.164;9.086;2022-09-09T02:34:46;1.75;;;1.02;;
51465;SDS011;37542;50.164;9.086;2022-09-09T02:38:35;1.58;;;1.13;;
51465;SDS011;37542;50.164;9.086;2022-09-09T02:42:21;1.63;;;1.17;;
51465;SDS011;37542;50.164;9.086;2022-09-09T02:51:23;2.22;;;1.00;;
51465;SDS011;37542;50.164;9.086;2022-09-09T02:55:04;1.75;;;1.02;;
51465;SDS011;37542;50.164;9.086;2022-09-09T02:59:04;1.30;;;1.20;;
51465;SDS011;37542;50.164;9.086;2022-09-09T03:02:45;2.58;;;1.00;;
51465;SDS011;37542;50.164;9.086;2022-09-09T03:06:26;1.15;;;0.95;;
51465;SDS011;37542;50.164;9.086;2022-09-09T03:10:08;2.88;;;1.40;;
51465;SDS011;37542;50.164;9.086;2022-09-09T03:13:50;1.10;;;0.88;;
51465;SDS011;37542;50.164;9.086;2022-09-09T03:17:31;1.45;;;1.10;;
51465;SDS011;37542;50.164;9.086;2022-09-09T03:21:12;2.10;;;1.00;;
51465;SDS011;37542;50.164;9.086;2022-09-09T03:24:54;1.35;;;0.90;;
51465;SDS011;37542;50.164;9.086;2022-09-09T03:28:34;1.85;;;1.02;;
51465;SDS011;37542;50.164;9.086;2022-09-09T03:32:15;1.50;;;1.00;;
51465;SDS011;37542;50.164;9.086;2022-09-09T03:35:57;2.75;;;1.17;;
51465;SDS011;37542;50.164;9.086;2022-09-09T03:39:38;1.60;;;1.10;;
51465;SDS011;37542;50.164;9.086;2022-09-09T03:43:19;1.83;;;1.00;;
51465;SDS011;37542;50.164;9.086;2022-09-09T03:47:01;1.00;;;0.90;;
51465;SDS011;37542;50.164;9.086;2022-09-09T03:50:51;2.15;;;1.15;;
51465;SDS011;37542;50.164;9.086;2022-09-09T03:54:33;1.38;;;1.08;;
51465;SDS011;37542;50.164;9.086;2022-09-09T03:58:15;1.92;;;1.13;;
51465;SDS011;37542;50.164;9.086;2022-09-09T04:01:58;4.13;;;1.40;;
51465;SDS011;37542;50.164;9.086;2022-09-09T04:05:39;2.03;;;1.13;;
51465;SDS011;37542;50.164;9.086;2022-09-09T04:09:22;2.72;;;1.30;;
51465;SDS011;37542;50.164;9.086;2022-09-09T04:13:03;2.33;;;1.05;;
51465;SDS011;37542;50.164;9.086;2022-09-09T04:16:45;1.73;;;1.00;;
51465;SDS011;37542;50.164;9.086;2022-09-09T04:20:26;3.13;;;1.45;;
51465;SDS011;37542;50.164;9.086;2022-09-09T04:24:07;2.28;;;1.30;;
51465;SDS011;37542;50.164;9.086;2022-09-09T04:27:52;1.95;;;0.95;;
51465;SDS011;37542;50.164;9.086;2022-09-09T04:31:35;2.38;;;1.20;;
51465;SDS011;37542;50.164;9.086;2022-09-09T04:35:15;2.13;;;1.10;;
51465;SDS011;37542;50.164;9.086;2022-09-09T04:38:56;1.60;;;1.10;;
51465;SDS011;37542;50.164;9.086;2022-09-09T04:42:37;3.13;;;1.10;;
51465;SDS011;37542;50.164;9.086;2022-09-09T04:46:20;2.33;;;1.02;;
51465;SDS011;37542;50.164;9.086;2022-09-09T04:50:02;1.88;;;1.00;;
51465;SDS011;37542;50.164;9.086;2022-09-09T04:53:45;2.80;;;1.10;;
51465;SDS011;37542;50.164;9.086;2022-09-09T04:57:27;2.17;;;1.20;;
51465;SDS011;37542;50.164;9.086;2022-09-09T05:01:09;1.92;;;1.10;;
51465;SDS011;37542;50.164;9.086;2022-09-09T05:04:57;2.63;;;1.10;;
51465;SDS011;37542;50.164;9.086;2022-09-09T05:08:39;1.45;;;0.80;;
51465;SDS011;37542;50.164;9.086;2022-09-09T05:12:22;1.85;;;1.00;;
51465;SDS011;37542;50.164;9.086;2022-09-09T05:16:05;7.03;;;1.20;;
51465;SDS011;37542;50.164;9.086;2022-09-09T05:19:46;1.85;;;0.90;;
51465;SDS011;37542;50.164;9.086;2022-09-09T05:23:27;1.17;;;0.95;;
51465;SDS011;37542;50.164;9.086;2022-09-09T05:27:07;2.58;;;0.98;;
51465;SDS011;37542;50.164;9.086;2022-09-09T05:30:55;2.35;;;1.10;;
51465;SDS011;37542;50.164;9.086;2022-09-09T05:34:44;1.85;;;1.08;;
51465;SDS011;37542;50.164;9.086;2022-09-09T05:38:26;2.15;;;1.20;;
51465;SDS011;37542;50.164;9.086;2022-09-09T05:42:08;2.90;;;1.55;;
51465;SDS011;37542;50.164;9.086;2022-09-09T05:45:59;7.97;;;2.97;;
51465;SDS011;37542;50.164;9.086;2022-09-09T05:49:54;3.85;;;1.60;;
51465;SDS011;37542;50.164;9.086;2022-09-09T05:53:35;3.47;;;1.60;;
51465;SDS011;37542;50.164;9.086;2022-09-09T05:57:16;3.25;;;1.48;;
51465;SDS011;37542;50.164;9.086;2022-09-09T06:01:09;2.72;;;1.20;;
51465;SDS011;37542;50.164;9.086;2022-09-09T06:04:53;3.15;;;1.40;;
51465;SDS011;37542;50.164;9.086;2022-09-09T06:08:36;3.75;;;1.63;;
51465;SDS011;37542;50.164;9.086;2022-09-09T06:12:20;3.55;;;1.60;;
51465;SDS011;37542;50.164;9.086;2022-09-09T06:16:01;3.40;;;1.30;;
51465;SDS011;37542;50.164;9.086;2022-09-09T06:19:42;2.17;;;1.10;;
51465;SDS011;37542;50.164;9.086;2022-09-09T06:23:23;2.05;;;1.13;;
51465;SDS011;37542;50.164;9.086;2022-09-09T06:27:05;2.13;;;1.30;;
51465;SDS011;37542;50.164;9.086;2022-09-09T06:30:46;2.20;;;1.27;;
51465;SDS011;37542;50.164;9.086;2022-09-09T06:34:27;2.20;;;1.10;;
51465;SDS011;37542;50.164;9.086;2022-09-09T06:38:08;2.90;;;1.20;;
51465;SDS011;37542;50.164;9.086;2022-09-09T06:41:49;1.58;;;1.10;;
51465;SDS011;37542;50.164;9.086;2022-09-09T06:45:33;1.95;;;0.80;;
51465;SDS011;37542;50.164;9.086;2022-09-09T06:49:16;3.25;;;0.98;;
51465;SDS011;37542;50.164;9.086;2022-09-09T06:52:57;2.95;;;1.63;;
51465;SDS011;37542;50.164;9.086;2022-09-09T06:56:39;3.70;;;1.42;;
51465;SDS011;37542;50.164;9.086;2022-09-09T07:00:22;2.40;;;0.90;;
51465;SDS011;37542;50.164;9.086;2022-09-09T07:04:04;3.97;;;1.17;;
51465;SDS011;37542;50.164;9.086;2022-09-09T07:07:47;1.80;;;1.30;;
51465;SDS011;37542;50.164;9.086;2022-09-09T07:11:29;2.13;;;1.17;;
51465;SDS011;37542;50.164;9.086;2022-09-09T07:15:22;4.35;;;1.20;;
51465;SDS011;37542;50.164;9.086;2022-09-09T07:19:03;2.22;;;1.27;;
51465;SDS011;37542;50.164;9.086;2022-09-09T07:22:44;2.78;;;1.17;;
51465;SDS011;37542;50.164;9.086;2022-09-09T07:26:26;1.88;;;1.15;;
51465;SDS011;37542;50.164;9.086;2022-09-09T07:30:10;2.72;;;1.25;;
51465;SDS011;37542;50.164;9.086;2022-09-09T07:33:51;2.45;;;1.13;;
51465;SDS011;37542;50.164;9.086;2022-09-09T07:37:32;2.95;;;1.17;;
51465;SDS011;37542;50.164;9.086;2022-09-09T07:41:17;2.92;;;1.40;;
51465;SDS011;37542;50.164;9.086;2022-09-09T07:45:23;3.97;;;1.35;;
51465;SDS011;37542;50.164;9.086;2022-09-09T07:49:04;4.82;;;1.65;;
51465;SDS011;37542;50.164;9.086;2022-09-09T07:52:46;2.80;;;1.40;;
51465;SDS011;37542;50.164;9.086;2022-09-09T07:56:29;2.35;;;1.23;;
51465;SDS011;37542;50.164;9.086;2022-09-09T08:00:13;4.97;;;1.92;;
51465;SDS011;37542;50.164;9.086;2022-09-09T08:03:58;3.30;;;1.30;;
51465;SDS011;37542;50.164;9.086;2022-09-09T08:07:42;3.38;;;1.30;;
51465;SDS011;37542;50.164;9.086;2022-09-09T08:11:24;3.28;;;1.30;;
51465;SDS011;37542;50.164;9.086;2022-09-09T08:15:08;5.25;;;1.30;;
51465;SDS011;37542;50.164;9.086;2022-09-09T08:18:52;4.07;;;1.25;;
51465;SDS011;37542;50.164;9.086;2022-09-09T08:22:34;4.53;;;1.88;;
51465;SDS011;37542;50.164;9.086;2022-09-09T08:26:25;2.78;;;1.83;;
51465;SDS011;37542;50.164;9.086;2022-09-09T08:30:15;2.28;;;1.17;;
51465;SDS011;37542;50.164;9.086;2022-09-09T08:33:57;4.07;;;1.30;;
51465;SDS011;37542;50.164;9.086;2022-09-09T08:37:39;3.97;;;1.50;;
51465;SDS011;37542;50.164;9.086;2022-09-09T08:45:37;3.83;;;1.60;;
51465;SDS011;37542;50.164;9.086;2022-09-09T08:53:46;4.15;;;1.70;;
51465;SDS011;37542;50.164;9.086;2022-09-09T08:57:31;3.28;;;1.40;;
51465;SDS011;37542;50.164;9.086;2022-09-09T09:05:27;2.50;;;1.30;;
51465;SDS011;37542;50.164;9.086;2022-09-09T09:13:47;2.92;;;1.30;;
51465;SDS011;37542;50.164;9.086;2022-09-09T09:17:42;3.75;;;1.45;;
51465;SDS011;37542;50.164;9.086;2022-09-09T09:21:41;4.22;;;1.58;;
51465;SDS011;37542;50.164;9.086;2022-09-09T09:25:31;5.00;;;1.60;;
51465;SDS011;37542;50.164;9.086;2022-09-09T09:29:18;4.10;;;1.23;;
51465;SDS011;37542;50.164;9.086;2022-09-09T09:37:26;5.25;;;1.67;;
51465;SDS011;37542;50.164;9.086;2022-09-09T09:41:14;3.22;;;1.40;;
51465;SDS011;37542;50.164;9.086;2022-09-09T09:44:55;3.42;;;1.10;;
51465;SDS011;37542;50.164;9.086;2022-09-09T09:48:36;4.43;;;1.20;;
51465;SDS011;37542;50.164;9.086;2022-09-09T09:52:17;4.28;;;1.38;;
51465;SDS011;37542;50.164;9.086;2022-09-09T09:56:06;3.85;;;1.20;;
51465;SDS011;37542;50.164;9.086;2022-09-09T10:00:00;5.22;;;1.23;;
51465;SDS011;37542;50.164;9.086;2022-09-09T10:08:12;3.33;;;1.13;;
51465;SDS011;37542;50.164;9.086;2022-09-09T10:20:48;2.92;;;1.20;;
51465;SDS011;37542;50.164;9.086;2022-09-09T10:33:07;3.65;;;0.77;;
51465;SDS011;37542;50.164;9.086;2022-09-09T10:37:22;1.92;;;0.90;;
51465;SDS011;37542;50.164;9.086;2022-09-09T10:45:29;3.70;;;1.20;;
51465;SDS011;37542;50.164;9.086;2022-09-09T10:49:44;3.00;;;1.23;;
51465;SDS011;37542;50.164;9.086;2022-09-09T10:57:50;2.10;;;1.10;;
51465;SDS011;37542;50.164;9.086;2022-09-09T11:01:47;4.20;;;1.13;;
51465;SDS011;37542;50.164;9.086;2022-09-09T11:09:28;3.08;;;1.30;;
51465;SDS011;37542;50.164;9.086;2022-09-09T11:13:18;3.92;;;1.30;;
51465;SDS011;37542;50.164;9.086;2022-09-09T11:17:39;1.38;;;0.90;;
51465;SDS011;37542;50.164;9.086;2022-09-09T11:21:36;3.30;;;1.25;;
51465;SDS011;37542;50.164;9.086;2022-09-09T11:25:32;2.83;;;1.90;;
51465;SDS011;37542;50.164;9.086;2022-09-09T11:41:13;3.13;;;1.05;;
51465;SDS011;37542;50.164;9.086;2022-09-09T11:44:56;2.35;;;0.98;;
51465;SDS011;37542;50.164;9.086;2022-09-09T11:52:39;3.22;;;1.20;;
51465;SDS011;37542;50.164;9.086;2022-09-09T12:04:16;1.77;;;0.77;;
51465;SDS011;37542;50.164;9.086;2022-09-09T12:08:04;1.73;;;0.70;;
51465;SDS011;37542;50.164;9.086;2022-09-09T12:11:46;2.47;;;0.90;;
51465;SDS011;37542;50.164;9.086;2022-09-09T12:15:27;2.88;;;1.17;;
51465;SDS011;37542;50.164;9.086;2022-09-09T12:26:54;5.45;;;0.95;;
51465;SDS011;37542;50.164;9.086;2022-09-09T12:31:10;2.40;;;0.95;;
51465;SDS011;37542;50.164;9.086;2022-09-09T12:38:51;3.10;;;0.90;;
51465;SDS011;37542;50.164;9.086;2022-09-09T12:42:39;1.65;;;0.88;;
51465;SDS011;37542;50.164;9.086;2022-09-09T12:46:30;2.42;;;0.90;;
51465;SDS011;37542;50.164;9.086;2022-09-09T12:50:22;2.03;;;0.80;;
51465;SDS011;37542;50.164;9.086;2022-09-09T12:54:12;3.03;;;1.15;;
51465;SDS011;37542;50.164;9.086;2022-09-09T12:57:55;2.97;;;0.90;;
51465;SDS011;37542;50.164;9.086;2022-09-09T13:01:39;1.30;;;0.73;;
51465;SDS011;37542;50.164;9.086;2022-09-09T13:05:24;2.67;;;0.90;;
51465;SDS011;37542;50.164;9.086;2022-09-09T13:09:08;3.85;;;1.02;;
51465;SDS011;37542;50.164;9.086;2022-09-09T13:12:50;2.03;;;1.08;;
51465;SDS011;37542;50.164;9.086;2022-09-09T13:16:32;1.90;;;1.02;;
51465;SDS011;37542;50.164;9.086;2022-09-09T13:20:18;3.67;;;1.15;;
51465;SDS011;37542;50.164;9.086;2022-09-09T13:24:01;3.45;;;1.27;;
51465;SDS011;37542;50.164;9.086;2022-09-09T13:27:59;3.00;;;1.33;;
51465;SDS011;37542;50.164;9.086;2022-09-09T13:31:43;5.40;;;1.23;;
51465;SDS011;37542;50.164;9.086;2022-09-09T13:35:26;5.70;;;1.40;;
51465;SDS011;37542;50.164;9.086;2022-09-09T13:39:15;4.25;;;1.40;;
51465;SDS011;37542;50.164;9.086;2022-09-09T13:42:58;4.72;;;1.30;;
51465;SDS011;37542;50.164;9.086;2022-09-09T13:46:39;3.92;;;1.30;;
51465;SDS011;37542;50.164;9.086;2022-09-09T13:50:22;4.10;;;1.50;;
51465;SDS011;37542;50.164;9.086;2022-09-09T13:54:04;2.78;;;1.13;;
51465;SDS011;37542;50.164;9.086;2022-09-09T13:57:55;1.48;;;0.63;;
51465;SDS011;37542;50.164;9.086;2022-09-09T14:01:40;2.10;;;0.88;;
51465;SDS011;37542;50.164;9.086;2022-09-09T14:05:21;1.10;;;0.90;;
51465;SDS011;37542;50.164;9.086;2022-09-09T14:09:02;1.33;;;0.98;;
51465;SDS011;37542;50.164;9.086;2022-09-09T14:12:44;0.95;;;0.80;;
51465;SDS011;37542;50.164;9.086;2022-09-09T14:16:26;2.70;;;0.98;;
51465;SDS011;37542;50.164;9.086;2022-09-09T14:20:08;1.80;;;0.77;;
51465;SDS011;37542;50.164;9.086;2022-09-09T14:23:52;1.23;;;0.73;;
51465;SDS011;37542;50.164;9.086;2022-09-09T14:27:33;1.48;;;0.70;;
51465;SDS011;37542;50.164;9.086;2022-09-09T14:31:14;1.85;;;1.08;;
51465;SDS011;37542;50.164;9.086;2022-09-09T14:34:54;1.67;;;0.60;;
51465;SDS011;37542;50.164;9.086;2022-09-09T14:38:36;1.63;;;0.70;;
51465;SDS011;37542;50.164;9.086;2022-09-09T14:42:22;1.92;;;0.75;;
51465;SDS011;37542;50.164;9.086;2022-09-09T14:49:53;3.38;;;1.30;;
51465;SDS011;37542;50.164;9.086;2022-09-09T14:53:34;1.77;;;0.70;;
51465;SDS011;37542;50.164;9.086;2022-09-09T14:57:14;1.15;;;0.70;;
51465;SDS011;37542;50.164;9.086;2022-09-09T15:00:55;1.42;;;0.88;;
51465;SDS011;37542;50.164;9.086;2022-09-09T15:04:46;1.67;;;0.90;;
51465;SDS011;37542;50.164;9.086;2022-09-09T15:08:27;2.70;;;0.80;;
51465;SDS011;37542;50.164;9.086;2022-09-09T15:12:08;15.35;;;1.67;;
51465;SDS011;37542;50.164;9.086;2022-09-09T15:15:48;2.35;;;0.95;;
51465;SDS011;37542;50.164;9.086;2022-09-09T15:19:29;1.67;;;0.77;;
51465;SDS011;37542;50.164;9.086;2022-09-09T15:23:12;3.03;;;0.95;;
51465;SDS011;37542;50.164;9.086;2022-09-09T15:26:54;1.92;;;0.93;;
51465;SDS011;37542;50.164;9.086;2022-09-09T15:30:34;1.05;;;0.77;;
51465;SDS011;37542;50.164;9.086;2022-09-09T15:34:15;0.90;;;0.70;;
51465;SDS011;37542;50.164;9.086;2022-09-09T15:37:56;1.58;;;0.70;;
51465;SDS011;37542;50.164;9.086;2022-09-09T15:41:37;3.03;;;0.85;;
51465;SDS011;37542;50.164;9.086;2022-09-09T15:45:19;2.60;;;0.90;;
51465;SDS011;37542;50.164;9.086;2022-09-09T15:52:53;1.95;;;0.60;;
51465;SDS011;37542;50.164;9.086;2022-09-09T15:56:34;1.95;;;0.70;;
51465;SDS011;37542;50.164;9.086;2022-09-09T16:00:15;1.52;;;0.73;;
51465;SDS011;37542;50.164;9.086;2022-09-09T16:03:56;2.40;;;0.63;;
51465;SDS011;37542;50.164;9.086;2022-09-09T16:07:39;1.52;;;0.60;;
51465;SDS011;37542;50.164;9.086;2022-09-09T16:11:23;1.48;;;0.60;;
51465;SDS011;37542;50.164;9.086;2022-09-09T16:15:07;2.33;;;0.75;;
51465;SDS011;37542;50.164;9.086;2022-09-09T16:18:48;1.58;;;0.73;;
51465;SDS011;37542;50.164;9.086;2022-09-09T16:22:34;1.23;;;0.60;;
51465;SDS011;37542;50.164;9.086;2022-09-09T16:26:15;1.83;;;0.65;;
51465;SDS011;37542;50.164;9.086;2022-09-09T16:29:58;1.70;;;0.70;;
51465;SDS011;37542;50.164;9.086;2022-09-09T16:33:39;1.65;;;0.70;;
51465;SDS011;37542;50.164;9.086;2022-09-09T16:37:21;1.10;;;0.50;;
51465;SDS011;37542;50.164;9.086;2022-09-09T16:41:02;1.70;;;0.80;;
51465;SDS011;37542;50.164;9.086;2022-09-09T16:44:45;0.63;;;0.60;;
51465;SDS011;37542;50.164;9.086;2022-09-09T16:48:27;1.00;;;0.45;;
51465;SDS011;37542;50.164;9.086;2022-09-09T16:52:13;1.15;;;0.60;;
51465;SDS011;37542;50.164;9.086;2022-09-09T16:55:53;0.85;;;0.55;;
51465;SDS011;37542;50.164;9.086;2022-09-09T16:59:34;1.08;;;0.60;;
51465;SDS011;37542;50.164;9.086;2022-09-09T17:03:16;2.60;;;0.98;;
51465;SDS011;37542;50.164;9.086;2022-09-09T17:06:56;2.25;;;1.15;;
51465;SDS011;37542;50.164;9.086;2022-09-09T17:10:40;1.65;;;0.80;;
51465;SDS011;37542;50.164;9.086;2022-09-09T17:14:22;2.65;;;1.05;;
51465;SDS011;37542;50.164;9.086;2022-09-09T17:18:03;0.90;;;0.52;;
51465;SDS011;37542;50.164;9.086;2022-09-09T17:21:44;2.35;;;0.90;;
51465;SDS011;37542;50.164;9.086;2022-09-09T17:25:27;2.55;;;0.82;;
51465;SDS011;37542;50.164;9.086;2022-09-09T17:29:08;0.95;;;0.60;;
51465;SDS011;37542;50.164;9.086;2022-09-09T17:32:50;2.55;;;0.68;;
51465;SDS011;37542;50.164;9.086;2022-09-09T17:36:32;1.20;;;0.85;;
51465;SDS011;37542;50.164;9.086;2022-09-09T17:40:16;2.53;;;1.17;;
51465;SDS011;37542;50.164;9.086;2022-09-09T17:43:57;2.38;;;1.00;;
51465;SDS011;37542;50.164;9.086;2022-09-09T17:47:38;3.70;;;1.10;;
51465;SDS011;37542;50.164;9.086;2022-09-09T17:51:21;3.15;;;1.00;;
51465;SDS011;37542;50.164;9.086;2022-09-09T17:55:07;1.20;;;0.68;;
51465;SDS011;37542;50.164;9.086;2022-09-09T17:58:49;2.80;;;1.08;;
51465;SDS011;37542;50.164;9.086;2022-09-09T18:02:31;2.08;;;0.63;;
51465;SDS011;37542;50.164;9.086;2022-09-09T18:06:13;1.60;;;1.00;;
51465;SDS011;37542;50.164;9.086;2022-09-09T18:10:03;1.65;;;1.00;;
51465;SDS011;37542;50.164;9.086;2022-09-09T18:13:50;1.98;;;0.70;;
51465;SDS011;37542;50.164;9.086;2022-09-09T18:17:35;2.35;;;0.90;;
51465;SDS011;37542;50.164;9.086;2022-09-09T18:21:16;0.80;;;0.63;;
51465;SDS011;37542;50.164;9.086;2022-09-09T18:24:58;1.42;;;0.50;;
51465;SDS011;37542;50.164;9.086;2022-09-09T18:28:40;2.25;;;0.98;;
51465;SDS011;37542;50.164;9.086;2022-09-09T18:32:22;1.70;;;0.80;;
51465;SDS011;37542;50.164;9.086;2022-09-09T18:36:07;1.27;;;0.77;;
51465;SDS011;37542;50.164;9.086;2022-09-09T18:39:51;2.33;;;0.80;;
51465;SDS011;37542;50.164;9.086;2022-09-09T18:43:32;2.53;;;0.88;;
51465;SDS011;37542;50.164;9.086;2022-09-09T18:47:13;2.13;;;1.05;;
51465;SDS011;37542;50.164;9.086;2022-09-09T18:50:54;1.05;;;0.60;;
51465;SDS011;37542;50.164;9.086;2022-09-09T18:54:36;1.98;;;0.80;;
51465;SDS011;37542;50.164;9.086;2022-09-09T18:58:17;3.13;;;0.90;;
51465;SDS011;37542;50.164;9.086;2022-09-09T19:01:57;1.63;;;0.50;;
51465;SDS011;37542;50.164;9.086;2022-09-09T19:05:38;0.98;;;0.70;;
51465;SDS011;37542;50.164;9.086;2022-09-09T19:09:19;1.08;;;0.70;;
51465;SDS011;37542;50.164;9.086;2022-09-09T19:13:00;0.52;;;0.52;;
51465;SDS011;37542;50.164;9.086;2022-09-09T19:16:41;3.47;;;0.80;;
51465;SDS011;37542;50.164;9.086;2022-09-09T19:20:24;1.70;;;0.70;;
51465;SDS011;37542;50.164;9.086;2022-09-09T19:24:05;1.23;;;0.90;;
51465;SDS011;37542;50.164;9.086;2022-09-09T19:31:31;1.92;;;0.90;;
51465;SDS011;37542;50.164;9.086;2022-09-09T19:35:13;1.83;;;0.77;;
51465;SDS011;37542;50.164;9.086;2022-09-09T19:38:54;1.33;;;0.70;;
51465;SDS011;37542;50.164;9.086;2022-09-09T19:42:35;1.92;;;0.88;;
51465;SDS011;37542;50.164;9.086;2022-09-09T19:46:16;1.08;;;0.60;;
51465;SDS011;37542;50.164;9.086;2022-09-09T19:49:57;0.63;;;0.60;;
51465;SDS011;37542;50.164;9.086;2022-09-09T19:53:39;2.92;;;1.00;;
51465;SDS011;37542;50.164;9.086;2022-09-09T19:57:23;1.65;;;0.82;;
51465;SDS011;37542;50.164;9.086;2022-09-09T20:01:11;1.30;;;0.77;;
51465;SDS011;37542;50.164;9.086;2022-09-09T20:05:01;2.40;;;1.02;;
51465;SDS011;37542;50.164;9.086;2022-09-09T20:08:42;1.42;;;0.88;;
51465;SDS011;37542;50.164;9.086;2022-09-09T20:12:26;1.85;;;0.70;;
51465;SDS011;37542;50.164;9.086;2022-09-09T20:16:08;1.88;;;1.05;;
51465;SDS011;37542;50.164;9.086;2022-09-09T20:19:52;0.77;;;0.52;;
51465;SDS011;37542;50.164;9.086;2022-09-09T20:23:33;2.45;;;0.70;;
51465;SDS011;37542;50.164;9.086;2022-09-09T20:27:14;1.48;;;1.05;;
51465;SDS011;37542;50.164;9.086;2022-09-09T20:30:55;1.80;;;0.75;;
51465;SDS011;37542;50.164;9.086;2022-09-09T20:34:42;1.60;;;0.93;;
51465;SDS011;37542;50.164;9.086;2022-09-09T20:38:24;1.17;;;0.60;;
51465;SDS011;37542;50.164;9.086;2022-09-09T20:42:06;1.38;;;0.63;;
51465;SDS011;37542;50.164;9.086;2022-09-09T20:45:47;1.88;;;0.63;;
51465;SDS011;37542;50.164;9.086;2022-09-09T20:49:29;0.95;;;0.50;;
51465;SDS011;37542;50.164;9.086;2022-09-09T20:53:09;1.50;;;0.70;;
51465;SDS011;37542;50.164;9.086;2022-09-09T20:56:51;0.77;;;0.60;;
51465;SDS011;37542;50.164;9.086;2022-09-09T21:00:34;0.50;;;0.50;;
51465;SDS011;37542;50.164;9.086;2022-09-09T21:04:16;0.47;;;0.47;;
51465;SDS011;37542;50.164;9.086;2022-09-09T21:07:58;0.93;;;0.70;;
51465;SDS011;37542;50.164;9.086;2022-09-09T21:11:40;0.60;;;0.40;;
51465;SDS011;37542;50.164;9.086;2022-09-09T21:15:21;1.30;;;0.80;;
51465;SDS011;37542;50.164;9.086;2022-09-09T21:19:03;1.23;;;0.80;;
51465;SDS011;37542;50.164;9.086;2022-09-09T21:22:44;1.48;;;0.68;;
51465;SDS011;37542;50.164;9.086;2022-09-09T21:26:25;0.80;;;0.52;;
51465;SDS011;37542;50.164;9.086;2022-09-09T21:30:06;0.85;;;0.60;;
51465;SDS011;37542;50.164;9.086;2022-09-09T21:33:47;1.38;;;0.63;;
51465;SDS011;37542;50.164;9.086;2022-09-09T21:37:28;0.43;;;0.40;;
51465;SDS011;37542;50.164;9.086;2022-09-09T21:41:10;0.30;;;0.30;;
51465;SDS011;37542;50.164;9.086;2022-09-09T21:44:54;2.47;;;0.70;;
51465;SDS011;37542;50.164;9.086;2022-09-09T21:48:35;0.65;;;0.50;;
51465;SDS011;37542;50.164;9.086;2022-09-09T21:52:16;0.40;;;0.30;;
51465;SDS011;37542;50.164;9.086;2022-09-09T21:56:11;0.63;;;0.40;;
51465;SDS011;37542;50.164;9.086;2022-09-09T21:59:55;1.02;;;0.47;;
51465;SDS011;37542;50.164;9.086;2022-09-09T22:03:37;0.25;;;0.25;;
51465;SDS011;37542;50.164;9.086;2022-09-09T22:07:18;0.38;;;0.38;;
51465;SDS011;37542;50.164;9.086;2022-09-09T22:11:06;0.40;;;0.40;;
51465;SDS011;37542;50.164;9.086;2022-09-09T22:14:50;0.88;;;0.47;;
51465;SDS011;37542;50.164;9.086;2022-09-09T22:18:32;2.47;;;0.80;;
51465;SDS011;37542;50.164;9.086;2022-09-09T22:22:13;1.10;;;0.47;;
51465;SDS011;37542;50.164;9.086;2022-09-09T22:25:54;1.02;;;0.50;;
51465;SDS011;37542;50.164;9.086;2022-09-09T22:29:36;0.57;;;0.50;;
51465;SDS011;37542;50.164;9.086;2022-09-09T22:33:17;0.60;;;0.60;;
51465;SDS011;37542;50.164;9.086;2022-09-09T22:37:00;0.47;;;0.45;;
51465;SDS011;37542;50.164;9.086;2022-09-09T22:40:42;0.40;;;0.40;;
51465;SDS011;37542;50.164;9.086;2022-09-09T22:44:24;2.42;;;0.60;;
51465;SDS011;37542;50.164;9.086;2022-09-09T22:48:06;0.50;;;0.40;;
51465;SDS011;37542;50.164;9.086;2022-09-09T22:51:46;0.70;;;0.65;;
51465;SDS011;37542;50.164;9.086;2022-09-09T22:55:28;0.50;;;0.30;;
51465;SDS011;37542;50.164;9.086;2022-09-09T22:59:09;1.00;;;0.55;;
51465;SDS011;37542;50.164;9.086;2022-09-09T23:02:50;1.00;;;0.60;;
51465;SDS011;37542;50.164;9.086;2022-09-09T23:06:32;1.00;;;0.57;;
51465;SDS011;37542;50.164;9.086;2022-09-09T23:10:13;1.55;;;0.60;;
51465;SDS011;37542;50.164;9.086;2022-09-09T23:13:55;1.38;;;0.60;;
51465;SDS011;37542;50.164;9.086;2022-09-09T23:17:39;0.65;;;0.60;;
51465;SDS011;37542;50.164;9.086;2022-09-09T23:21:20;1.45;;;0.82;;
51465;SDS011;37542;50.164;9.086;2022-09-09T23:25:05;2.42;;;0.57;;
51465;SDS011;37542;50.164;9.086;2022-09-09T23:28:47;1.08;;;0.57;;
51465;SDS011;37542;50.164;9.086;2022-09-09T23:32:30;2.45;;;0.60;;
51465;SDS011;37542;50.164;9.086;2022-09-09T23:36:12;0.70;;;0.52;;
51465;SDS011;37542;50.164;9.086;2022-09-09T23:39:58;1.67;;;0.60;;
51465;SDS011;37542;50.164;9.086;2022-09-09T23:43:39;1.00;;;0.73;;
51465;SDS011;37542;50.164;9.086;2022-09-09T23:47:22;0.75;;;0.60;;
51465;SDS011;37542;50.164;9.086;2022-09-09T23:51:04;2.08;;;0.90;;
51465;SDS011;37542;50.164;9.086;2022-09-09T23:54:48;3.83;;;0.90;;
51465;SDS011;37542;50.164;9.086;2022-09-09T23:58:32;1.13;;;0.70;;
